Time;durP1;ratioP1;P1;durP2;ratioP2;P2;SDS_P1;SDS_P2;PMS_P1;PMS_P2;Temp;Humidity;BMP_temperature;BMP_pressure;BME280_temperature;BME280_humidity;BME280_pressure;Samples;Min_cycle;Max_cycle;Signal;HPM_P1;HPM_P2
2022/02/14 00:01:17;;;;;;;4.63;2.00;;;-0.30;63.80;;;;;;5035141;28;20047;-80
2022/02/14 00:03:43;;;;;;;3.47;2.25;;;-0.40;63.70;;;;;;5034950;28;20025;-79
2022/02/14 00:06:08;;;;;;;4.05;2.42;;;-0.40;63.50;;;;;;5017076;28;20038;-80
2022/02/14 00:08:34;;;;;;;3.75;1.98;;;-0.40;63.80;;;;;;5017318;28;20032;-80
2022/02/14 00:11:00;;;;;;;5.15;2.30;;;-0.50;63.80;;;;;;5037099;28;20459;-78
2022/02/14 00:13:26;;;;;;;4.90;2.70;;;-0.50;63.80;;;;;;5019931;28;20386;-81
2022/02/14 00:15:52;;;;;;;6.70;2.53;;;-0.50;64.10;;;;;;5023780;28;20479;-81
2022/02/14 00:18:18;;;;;;;3.95;1.77;;;-0.50;64.30;;;;;;5015045;28;20045;-81
2022/02/14 00:20:44;;;;;;;7.68;2.60;;;-0.50;64.20;;;;;;5021582;28;20033;-80
2022/02/14 00:23:10;;;;;;;9.35;2.72;;;-0.60;64.20;;;;;;5017029;28;20390;-80
2022/02/14 00:25:36;;;;;;;4.55;2.47;;;-0.60;64.00;;;;;;5016876;28;20512;-80
2022/02/14 00:28:02;;;;;;;7.65;2.53;;;-0.70;63.80;;;;;;5017456;28;20018;-82
2022/02/14 00:30:29;;;;;;;4.93;2.38;;;-0.70;64.20;;;;;;5035223;28;20108;-81
2022/02/14 00:32:54;;;;;;;5.50;2.17;;;-0.70;64.30;;;;;;5035625;28;20021;-81
2022/02/14 00:35:23;;;;;;;5.65;2.28;;;-0.70;64.40;;;;;;5034670;28;20751;-81
2022/02/14 00:37:49;;;;;;;4.07;2.50;;;-0.70;64.40;;;;;;5034517;28;20045;-81
2022/02/14 00:40:15;;;;;;;5.00;2.13;;;-0.70;64.50;;;;;;5036210;28;20417;-81
2022/02/14 00:42:41;;;;;;;5.30;2.85;;;-0.70;64.60;;;;;;5039829;28;20100;-81
2022/02/14 00:45:07;;;;;;;4.60;2.38;;;-0.70;64.70;;;;;;5036590;28;20391;-81
2022/02/14 00:47:33;;;;;;;3.67;2.10;;;-0.80;64.90;;;;;;5035503;28;20064;-81
2022/02/14 00:49:59;;;;;;;6.35;2.80;;;-0.80;64.80;;;;;;5017245;28;20489;-80
2022/02/14 00:52:26;;;;;;;4.03;2.63;;;-0.80;64.60;;;;;;5034905;28;20021;-81
2022/02/14 00:54:57;;;;;;;4.47;2.45;;;-0.80;64.70;;;;;;5034058;28;20025;-81
2022/02/14 00:57:24;;;;;;;6.80;2.38;;;-0.80;64.90;;;;;;5034052;28;20108;-79
2022/02/14 00:59:50;;;;;;;5.57;2.38;;;-0.80;64.80;;;;;;5033340;28;20068;-82
2022/02/14 01:02:16;;;;;;;4.82;2.22;;;-0.90;64.90;;;;;;5033154;28;20433;-81
2022/02/14 01:04:42;;;;;;;5.78;2.72;;;-0.90;65.00;;;;;;5034066;28;20029;-82
2022/02/14 01:07:08;;;;;;;2.83;1.92;;;-0.90;65.30;;;;;;5016156;28;20026;-82
2022/02/14 01:09:34;;;;;;;5.55;3.15;;;-0.90;65.30;;;;;;5033700;28;20028;-78
2022/02/14 01:12:00;;;;;;;2.58;1.70;;;-0.90;65.30;;;;;;5034138;28;20516;-81
2022/02/14 01:14:26;;;;;;;5.63;2.05;;;-0.90;65.40;;;;;;5034242;28;20033;-81
2022/02/14 01:16:51;;;;;;;3.85;2.53;;;-0.90;65.90;;;;;;5033001;28;20029;-82
2022/02/14 01:19:17;;;;;;;4.13;2.47;;;-0.90;65.20;;;;;;5033917;28;20037;-81
2022/02/14 01:21:43;;;;;;;6.00;2.22;;;-0.90;65.40;;;;;;5034093;28;20538;-82
2022/02/14 01:24:09;;;;;;;4.13;1.98;;;-0.80;65.40;;;;;;5033982;28;20029;-81
2022/02/14 01:26:35;;;;;;;5.43;1.98;;;-0.80;65.50;;;;;;5033517;28;20032;-80
2022/02/14 01:29:01;;;;;;;5.28;2.38;;;-0.90;65.50;;;;;;5033438;28;20021;-81
2022/02/14 01:31:26;;;;;;;3.78;1.90;;;-0.80;65.50;;;;;;5034084;28;20096;-81
2022/02/14 01:33:52;;;;;;;3.17;2.08;;;-0.80;65.50;;;;;;5027890;28;20025;-83
2022/02/14 01:36:18;;;;;;;4.20;2.03;;;-0.80;65.60;;;;;;5039246;28;20110;-81
2022/02/14 01:38:44;;;;;;;4.13;2.45;;;-0.80;65.80;;;;;;5018215;28;20076;-80
2022/02/14 01:41:09;;;;;;;3.33;2.03;;;-0.80;65.60;;;;;;5033609;28;20029;-81
2022/02/14 01:43:35;;;;;;;4.18;2.20;;;-0.80;65.80;;;;;;5033289;28;20053;-79
2022/02/14 01:46:01;;;;;;;5.00;2.22;;;-0.80;66.10;;;;;;5033033;28;20040;-81
2022/02/14 01:48:27;;;;;;;5.82;2.30;;;-0.80;66.10;;;;;;5014689;28;20116;-82
2022/02/14 01:50:53;;;;;;;5.30;2.53;;;-0.80;66.20;;;;;;5032683;28;20056;-82
2022/02/14 01:53:19;;;;;;;4.63;2.42;;;-0.90;66.20;;;;;;5033044;28;20077;-82
2022/02/14 01:55:45;;;;;;;5.40;2.50;;;-0.90;66.40;;;;;;5033210;28;20060;-81
2022/02/14 01:58:11;;;;;;;3.25;2.00;;;-0.90;66.50;;;;;;5032896;28;20057;-81
2022/02/14 02:00:37;;;;;;;6.30;2.17;;;-0.90;66.70;;;;;;5032855;28;20017;-82
2022/02/14 02:03:03;;;;;;;3.83;2.15;;;-0.90;66.80;;;;;;5032838;28;20021;-81
2022/02/14 02:05:28;;;;;;;2.78;1.60;;;-1.00;66.80;;;;;;5023514;28;20482;-82
2022/02/14 02:07:54;;;;;;;5.13;2.65;;;-1.00;66.90;;;;;;5012884;28;20029;-81
2022/02/14 02:10:21;;;;;;;4.18;2.15;;;-1.00;67.10;;;;;;5013099;28;20030;-80
2022/02/14 02:12:56;;;;;;;3.33;2.20;;;-1.00;67.20;;;;;;5012665;28;20060;-80
2022/02/14 02:15:23;;;;;;;4.95;2.63;;;-1.00;67.30;;;;;;5012672;28;20013;-82
2022/02/14 02:17:49;;;;;;;6.20;2.70;;;-1.00;67.40;;;;;;5017739;28;20024;-83
2022/02/14 02:20:17;;;;;;;3.57;2.33;;;-1.00;67.50;;;;;;5032714;28;20037;-81
2022/02/14 02:22:46;;;;;;;4.53;2.97;;;-1.10;67.70;;;;;;5013784;28;20040;-80
2022/02/14 02:25:12;;;;;;;3.97;2.10;;;-1.10;67.80;;;;;;5032499;28;20038;-81
2022/02/14 02:27:39;;;;;;;4.97;2.47;;;-1.00;68.20;;;;;;5032660;28;20021;-80
2022/02/14 02:30:07;;;;;;;5.60;2.72;;;-1.00;68.30;;;;;;5033946;28;20088;-82
2022/02/14 02:32:33;;;;;;;3.35;2.15;;;-1.00;68.40;;;;;;5035722;28;20141;-82
2022/02/14 02:35:01;;;;;;;4.95;2.88;;;-1.00;68.50;;;;;;5016824;28;20105;-80
2022/02/14 02:37:28;;;;;;;4.35;2.78;;;-1.00;68.50;;;;;;5035570;28;20045;-82
2022/02/14 02:39:55;;;;;;;3.78;1.92;;;-1.00;68.60;;;;;;5015878;28;20057;-80
2022/02/14 02:42:22;;;;;;;8.43;2.13;;;-1.00;68.70;;;;;;5015540;28;20551;-82
2022/02/14 02:44:48;;;;;;;2.33;1.85;;;-1.00;68.80;;;;;;5033122;28;20521;-82
2022/02/14 02:47:16;;;;;;;3.65;2.47;;;-1.00;68.90;;;;;;5034678;28;20040;-82
2022/02/14 02:49:44;;;;;;;3.42;2.38;;;-1.00;69.20;;;;;;5030067;28;20031;-81
2022/02/14 02:52:12;;;;;;;8.50;2.97;;;-1.00;69.30;;;;;;5053235;28;20025;-82
2022/02/14 02:54:44;;;;;;;;;;;-1.00;69.40;;;;;;5051074;28;20029;-83
2022/02/14 02:57:11;;;;;;;4.32;2.60;;;-1.00;69.40;;;;;;5017732;28;19914;-82
2022/02/14 02:59:39;;;;;;;3.10;2.10;;;-1.00;69.40;;;;;;5013402;28;20554;-80
2022/02/14 03:02:09;;;;;;;3.25;2.40;;;-1.00;69.60;;;;;;5012829;28;20038;-80
2022/02/14 03:04:35;;;;;;;4.55;2.72;;;-1.10;69.80;;;;;;5012672;28;20117;-81
2022/02/14 03:07:02;;;;;;;3.30;2.38;;;-1.10;70.00;;;;;;5014942;28;20382;-81
2022/02/14 03:09:28;;;;;;;3.25;2.47;;;-1.10;70.10;;;;;;5015339;28;20030;-81
2022/02/14 03:11:54;;;;;;;3.67;2.13;;;-1.00;70.20;;;;;;5013642;28;20026;-81
2022/02/14 03:14:21;;;;;;;2.92;1.77;;;-1.10;70.30;;;;;;5032034;28;20025;-80
2022/02/14 03:16:47;;;;;;;7.15;2.30;;;-1.00;70.40;;;;;;5031822;28;20025;-80
2022/02/14 03:19:13;;;;;;;5.80;1.95;;;-1.10;70.50;;;;;;5014435;28;20025;-81
2022/02/14 03:21:39;;;;;;;7.63;2.60;;;-1.10;70.60;;;;;;5031819;28;20025;-80
2022/02/14 03:24:05;;;;;;;6.07;2.65;;;-1.10;70.80;;;;;;5031975;28;20025;-81
2022/02/14 03:26:31;;;;;;;3.80;1.87;;;-1.10;70.90;;;;;;5017952;28;20056;-81
2022/02/14 03:28:58;;;;;;;4.00;2.72;;;-1.10;71.00;;;;;;5022301;28;20022;-81
2022/02/14 03:31:24;;;;;;;5.25;2.55;;;-1.20;71.10;;;;;;5015968;28;20022;-81
2022/02/14 03:33:50;;;;;;;4.15;2.58;;;-1.10;71.50;;;;;;5020331;28;20041;-82
2022/02/14 03:36:18;;;;;;;4.43;2.25;;;-1.10;71.70;;;;;;5035862;28;20025;-82
2022/02/14 03:38:44;;;;;;;;;;;-1.10;71.70;;;;;;5035788;28;20053;-80
2022/02/14 03:41:11;;;;;;;4.33;2.23;;;-1.20;71.60;;;;;;5035999;28;20286;-80
2022/02/14 03:43:37;;;;;;;4.28;2.42;;;-1.20;71.90;;;;;;5029087;28;20055;-80
2022/02/14 03:46:03;;;;;;;3.70;2.40;;;-1.20;71.90;;;;;;5015675;28;20066;-82
2022/02/14 03:48:29;;;;;;;5.32;2.47;;;-1.10;72.20;;;;;;5015864;28;20022;-81
2022/02/14 03:50:55;;;;;;;3.70;2.33;;;-1.10;72.70;;;;;;4997809;28;20029;-82
2022/02/14 03:53:23;;;;;;;4.00;2.63;;;-1.10;72.10;;;;;;5015391;28;20029;-82
2022/02/14 03:55:49;;;;;;;7.07;2.53;;;-1.10;72.20;;;;;;5015629;28;20025;-81
2022/02/14 03:58:16;;;;;;;3.95;2.20;;;-1.00;72.30;;;;;;4997724;28;20120;-81
2022/02/14 04:00:41;;;;;;;2.72;2.10;;;-1.10;72.20;;;;;;5015720;28;20022;-81
2022/02/14 04:03:07;;;;;;;3.20;2.50;;;-1.10;72.30;;;;;;5035202;28;20025;-81
2022/02/14 04:05:33;;;;;;;2.42;1.92;;;-1.10;72.50;;;;;;5035154;28;20033;-82
2022/02/14 04:07:59;;;;;;;5.18;2.50;;;-1.10;72.50;;;;;;5035164;28;20021;-80
2022/02/14 04:10:26;;;;;;;9.77;2.88;;;-1.10;72.60;;;;;;5017116;28;20033;-81
2022/02/14 04:12:53;;;;;;;5.35;2.60;;;-1.10;72.70;;;;;;5034978;28;20047;-81
2022/02/14 04:15:19;;;;;;;4.47;2.20;;;-1.10;72.80;;;;;;5035276;28;20026;-80
2022/02/14 04:17:46;;;;;;;3.45;2.42;;;-1.10;72.90;;;;;;5019417;28;20104;-81
2022/02/14 04:20:12;;;;;;;3.88;2.33;;;-1.10;73.00;;;;;;5015162;28;20029;-80
2022/02/14 04:22:40;;;;;;;2.63;1.90;;;-1.10;73.00;;;;;;5014974;28;20022;-81
2022/02/14 04:25:07;;;;;;;4.97;2.78;;;-1.10;72.90;;;;;;5015000;28;20060;-81
2022/02/14 04:27:33;;;;;;;3.80;2.15;;;-1.20;73.00;;;;;;4997217;28;20022;-81
2022/02/14 04:29:59;;;;;;;5.28;3.13;;;-1.20;73.20;;;;;;5015423;28;20076;-82
2022/02/14 04:32:24;;;;;;;4.82;2.45;;;-1.20;73.40;;;;;;5016373;28;20089;-80
2022/02/14 04:34:50;;;;;;;5.35;2.75;;;-1.20;73.40;;;;;;5016377;28;20113;-81
2022/02/14 04:37:16;;;;;;;4.63;2.10;;;-1.20;73.60;;;;;;5016092;28;20050;-80
2022/02/14 04:39:43;;;;;;;4.15;2.15;;;-1.20;73.40;;;;;;5015055;28;20435;-81
2022/02/14 04:42:09;;;;;;;5.95;2.40;;;-1.20;73.60;;;;;;5014501;28;20028;-81
2022/02/14 04:44:35;;;;;;;3.67;2.22;;;-1.20;73.70;;;;;;5014205;28;20057;-82
2022/02/14 04:47:01;;;;;;;3.72;1.95;;;-1.10;73.80;;;;;;5031493;28;20022;-81
2022/02/14 04:49:27;;;;;;;5.07;2.83;;;-1.10;73.80;;;;;;5034229;28;20052;-83
2022/02/14 04:51:53;;;;;;;3.78;2.45;;;-1.10;73.80;;;;;;5034384;28;20068;-81
2022/02/14 04:54:19;;;;;;;4.38;2.22;;;-1.10;73.70;;;;;;5023392;28;20034;-80
2022/02/14 04:56:44;;;;;;;3.58;3.10;;;-1.10;73.70;;;;;;5015469;28;20030;-81
2022/02/14 04:59:10;;;;;;;4.55;2.42;;;-1.10;73.80;;;;;;5016744;28;20117;-82
2022/02/14 05:01:36;;;;;;;5.05;3.10;;;-1.10;74.00;;;;;;5026337;28;20461;-84
2022/02/14 05:04:02;;;;;;;7.28;3.63;;;-1.10;74.10;;;;;;5042528;28;20026;-83
2022/02/14 05:06:28;;;;;;;4.95;3.25;;;-1.10;74.30;;;;;;5034815;28;20322;-82
2022/02/14 05:08:54;;;;;;;6.15;3.03;;;-1.10;74.40;;;;;;5028364;28;20018;-84
2022/02/14 05:11:19;;;;;;;4.18;2.42;;;-1.20;74.40;;;;;;4996609;28;20030;-84
2022/02/14 05:13:46;;;;;;;6.25;2.60;;;-1.20;74.40;;;;;;5019090;28;20376;-85
2022/02/14 05:16:11;;;;;;;4.38;2.50;;;-1.20;74.40;;;;;;5019898;28;20022;-84
2022/02/14 05:18:37;;;;;;;5.10;3.08;;;-1.20;74.60;;;;;;5014005;28;20081;-83
2022/02/14 05:21:03;;;;;;;6.93;2.58;;;-1.10;74.70;;;;;;5013704;28;20040;-82
2022/02/14 05:23:30;;;;;;;4.28;2.42;;;-1.10;74.80;;;;;;5014033;28;20515;-81
2022/02/14 05:25:56;;;;;;;4.13;2.78;;;-1.10;74.80;;;;;;5022190;28;20080;-83
2022/02/14 05:28:21;;;;;;;6.18;2.92;;;-1.00;74.90;;;;;;5015806;28;20065;-82
2022/02/14 05:30:47;;;;;;;5.45;2.65;;;-0.90;74.80;;;;;;5033238;28;20036;-83
2022/02/14 05:33:13;;;;;;;4.18;2.33;;;-0.90;74.70;;;;;;5033601;28;20026;-83
2022/02/14 05:35:40;;;;;;;4.00;2.25;;;-0.90;74.70;;;;;;5032666;28;20351;-82
2022/02/14 05:38:09;;;;;;;5.57;2.63;;;-0.80;74.40;;;;;;5032936;28;20060;-81
2022/02/14 05:40:35;;;;;;;6.72;2.75;;;-0.80;74.60;;;;;;5033290;28;20151;-83
2022/02/14 05:43:00;;;;;;;4.93;2.58;;;-0.80;74.50;;;;;;5022343;28;20103;-82
2022/02/14 05:45:26;;;;;;;3.92;2.70;;;-0.80;74.20;;;;;;5017926;28;20116;-83
2022/02/14 05:47:52;;;;;;;4.18;2.65;;;-0.80;74.40;;;;;;5015007;28;20075;-85
2022/02/14 05:50:18;;;;;;;6.07;3.05;;;-0.80;74.40;;;;;;5033463;28;20501;-83
2022/02/14 05:52:44;;;;;;;8.82;3.60;;;-0.70;74.40;;;;;;5032719;28;20104;-83
2022/02/14 05:55:10;;;;;;;6.72;2.70;;;-0.70;74.50;;;;;;5032739;28;20419;-81
2022/02/14 05:57:36;;;;;;;3.90;2.55;;;-0.70;74.30;;;;;;5033294;28;20021;-82
2022/02/14 06:00:05;;;;;;;4.40;2.63;;;-0.70;74.40;;;;;;5025845;28;20021;-84
2022/02/14 06:02:30;;;;;;;8.40;3.05;;;-0.60;74.40;;;;;;5013902;28;20061;-83
2022/02/14 06:04:56;;;;;;;7.88;3.75;;;-0.60;74.40;;;;;;5013900;28;20068;-83
2022/02/14 06:07:22;;;;;;;6.60;2.72;;;-0.50;74.30;;;;;;5013497;28;20076;-82
2022/02/14 06:09:48;;;;;;;8.00;3.42;;;-0.50;74.40;;;;;;5013162;28;20109;-83
2022/02/14 06:12:14;;;;;;;10.23;3.22;;;-0.50;74.30;;;;;;5029176;28;20025;-81
2022/02/14 06:14:40;;;;;;;5.10;2.78;;;-0.50;74.30;;;;;;5015828;28;20720;-81
2022/02/14 06:17:05;;;;;;;4.13;2.85;;;-0.60;74.40;;;;;;5032027;28;20071;-81
2022/02/14 06:19:31;;;;;;;3.85;2.83;;;-0.60;74.50;;;;;;5014569;28;20368;-81
2022/02/14 06:21:57;;;;;;;7.55;3.17;;;-0.60;74.70;;;;;;5016497;28;20034;-82
2022/02/14 06:24:23;;;;;;;4.85;2.83;;;-0.60;74.80;;;;;;5033861;28;20026;-81
2022/02/14 06:26:49;;;;;;;4.28;3.03;;;-0.60;74.90;;;;;;5014524;28;20029;-78
2022/02/14 06:29:15;;;;;;;5.40;3.30;;;-0.70;75.00;;;;;;5009960;28;20049;-80
2022/02/14 06:31:41;;;;;;;6.30;2.95;;;-0.70;75.30;;;;;;5019956;28;20049;-81
2022/02/14 06:34:06;;;;;;;6.53;3.80;;;-0.70;75.50;;;;;;5028366;28;20029;-81
2022/02/14 06:36:32;;;;;;;4.60;3.17;;;-0.60;75.50;;;;;;5031240;28;20032;-82
2022/02/14 06:39:00;;;;;;;6.53;3.45;;;-0.70;75.40;;;;;;5014559;28;20053;-81
2022/02/14 06:41:26;;;;;;;;;;;-0.60;75.70;;;;;;5015612;28;20032;-86
2022/02/14 06:43:55;;;;;;;6.03;3.28;;;-0.60;75.60;;;;;;5037347;28;19913;-81
2022/02/14 06:46:22;;;;;;;6.00;3.90;;;-0.60;75.70;;;;;;5036692;28;20097;-82
2022/02/14 06:48:51;;;;;;;4.50;3.20;;;-0.70;75.80;;;;;;5033114;28;20030;-83
2022/02/14 06:51:20;;;;;;;7.13;3.40;;;-0.60;76.00;;;;;;5033681;28;20022;-86
2022/02/14 06:53:46;;;;;;;4.28;2.85;;;-0.60;76.70;;;;;;5018565;28;20037;-87
2022/02/14 06:56:12;;;;;;;8.63;5.47;;;-0.50;76.00;;;;;;5013690;28;20504;-86
2022/02/14 06:58:40;;;;;;;6.07;3.67;;;-0.50;76.00;;;;;;5016119;28;20030;-85
2022/02/14 07:01:07;;;;;;;;;;;-0.50;76.10;;;;;;5018027;28;20144;-86
2022/02/14 07:03:34;;;;;;;7.18;4.03;;;-0.50;76.00;;;;;;5023195;28;19929;-86
2022/02/14 07:06:00;;;;;;;5.50;3.45;;;-0.50;76.10;;;;;;5006246;28;20057;-84
2022/02/14 07:08:27;;;;;;;6.63;3.20;;;-0.50;76.20;;;;;;5022887;28;20118;-85
2022/02/14 07:10:53;;;;;;;;;;;-0.40;76.40;;;;;;5027439;28;20026;-86
2022/02/14 07:13:19;;;;;;;5.57;3.35;;;-0.30;76.30;;;;;;5008386;28;20365;-85
2022/02/14 07:15:45;;;;;;;10.40;4.53;;;-0.30;76.30;;;;;;5027430;28;20034;-85
2022/02/14 07:18:12;;;;;;;8.10;4.15;;;-0.20;76.30;;;;;;5021236;28;20026;-84
2022/02/14 07:20:40;;;;;;;7.45;3.90;;;-0.10;76.20;;;;;;5020021;28;20037;-84
2022/02/14 07:23:06;;;;;;;7.13;4.90;;;-0.10;76.00;;;;;;5000001;28;20479;-84
2022/02/14 07:25:32;;;;;;;10.40;5.28;;;0.00;75.90;;;;;;5004723;28;20040;-82
2022/02/14 07:27:58;;;;;;;7.80;4.78;;;0.10;76.00;;;;;;5023499;28;20018;-82
2022/02/14 07:30:24;;;;;;;7.57;4.53;;;0.30;75.90;;;;;;5035557;28;20029;-83
2022/02/14 07:32:51;;;;;;;9.63;4.18;;;0.50;75.60;;;;;;5039666;28;20507;-83
2022/02/14 07:35:18;;;;;;;10.68;5.22;;;0.70;75.00;;;;;;5036205;28;20037;-84
2022/02/14 07:37:44;;;;;;;6.57;3.53;;;0.70;74.50;;;;;;5035553;28;20045;-83
2022/02/14 07:40:12;;;;;;;8.07;4.38;;;0.80;74.00;;;;;;5031491;28;20037;-84
2022/02/14 07:42:38;;;;;;;8.43;5.20;;;0.80;74.00;;;;;;5018129;28;20054;-84
2022/02/14 07:45:08;;;;;;;7.30;4.32;;;0.70;74.00;;;;;;5034794;28;20111;-84
2022/02/14 07:47:34;;;;;;;5.45;4.30;;;0.70;74.20;;;;;;5008638;28;20021;-83
2022/02/14 07:50:00;;;;;;;6.45;4.18;;;0.70;74.30;;;;;;5032644;28;20033;-79
2022/02/14 07:52:26;;;;;;;5.82;4.45;;;0.60;74.40;;;;;;5034577;28;20025;-82
2022/02/14 07:54:53;;;;;;;9.63;3.53;;;0.60;74.40;;;;;;5035354;28;20079;-82
2022/02/14 07:57:21;;;;;;;8.98;4.60;;;0.70;74.70;;;;;;5016427;28;20471;-83
2022/02/14 07:59:47;;;;;;;8.93;4.65;;;0.70;74.60;;;;;;5035310;28;20029;-81
2022/02/14 08:02:13;;;;;;;8.80;4.78;;;0.80;75.20;;;;;;5018415;28;20028;-84
2022/02/14 08:04:39;;;;;;;6.95;4.82;;;1.00;74.60;;;;;;5035861;28;20061;-83
2022/02/14 08:07:06;;;;;;;6.55;4.07;;;1.10;74.80;;;;;;5038261;28;20013;-83
2022/02/14 08:09:33;;;;;;;8.85;5.72;;;1.00;73.90;;;;;;5025581;28;20033;-84
2022/02/14 08:11:59;;;;;;;10.32;4.32;;;1.10;73.90;;;;;;5042881;28;20021;-82
2022/02/14 08:14:25;;;;;;;8.30;5.28;;;1.10;74.00;;;;;;5022759;28;20025;-81
2022/02/14 08:16:50;;;;;;;12.40;5.60;;;1.20;74.20;;;;;;5035557;28;20081;-81
2022/02/14 08:19:16;;;;;;;9.35;5.05;;;1.30;73.90;;;;;;5017359;28;20021;-84
2022/02/14 08:21:42;;;;;;;6.82;4.10;;;1.50;73.60;;;;;;5035625;28;20036;-81
2022/02/14 08:24:08;;;;;;;6.68;4.57;;;1.60;73.30;;;;;;5035944;28;20024;-83
2022/02/14 08:26:34;;;;;;;7.82;4.78;;;1.90;73.30;;;;;;5035643;28;20034;-82
2022/02/14 08:29:02;;;;;;;12.95;5.97;;;2.10;72.60;;;;;;5017531;28;20045;-84
2022/02/14 08:31:29;;;;;;;9.70;4.93;;;2.40;72.20;;;;;;5034819;28;20352;-79
2022/02/14 08:33:58;;;;;;;10.73;6.18;;;2.70;71.30;;;;;;5034492;28;20028;-79
2022/02/14 08:36:25;;;;;;;14.50;5.65;;;2.90;70.50;;;;;;5033503;28;20029;-83
2022/02/14 08:38:52;;;;;;;11.33;5.70;;;3.00;69.80;;;;;;5035041;28;20499;-83
2022/02/14 08:41:18;;;;;;;11.60;6.47;;;3.20;69.40;;;;;;5034387;28;20266;-80
2022/02/14 08:43:44;;;;;;;9.45;5.45;;;3.40;69.10;;;;;;5035120;28;20025;-80
2022/02/14 08:46:10;;;;;;;9.65;5.75;;;3.80;68.50;;;;;;5034638;28;20049;-84
2022/02/14 08:48:36;;;;;;;9.55;5.72;;;4.10;66.90;;;;;;5036531;28;20108;-83
2022/02/14 08:51:05;;;;;;;10.00;5.68;;;4.40;66.10;;;;;;5012710;28;20029;-84
2022/02/14 08:53:34;;;;;;;6.55;4.80;;;4.70;65.10;;;;;;5034387;28;20075;-80
2022/02/14 08:56:04;;;;;;;8.50;5.57;;;4.80;64.00;;;;;;5034541;28;20075;-82
2022/02/14 08:58:30;;;;;;;9.70;5.70;;;5.00;63.50;;;;;;5016396;28;20042;-82
2022/02/14 09:00:56;;;;;;;7.00;4.25;;;4.90;62.60;;;;;;4999811;28;20029;-81
2022/02/14 09:03:23;;;;;;;11.13;6.43;;;4.80;63.00;;;;;;5034018;28;20422;-82
2022/02/14 09:05:48;;;;;;;9.60;5.78;;;4.80;63.40;;;;;;5033746;28;20117;-81
2022/02/14 09:08:14;;;;;;;10.85;5.25;;;5.20;62.90;;;;;;5033926;28;20105;-81
2022/02/14 09:10:40;;;;;;;11.98;6.72;;;5.50;62.00;;;;;;5035409;28;20430;-79
2022/02/14 09:13:06;;;;;;;10.38;5.18;;;5.60;61.50;;;;;;5035083;28;20462;-82
2022/02/14 09:15:32;;;;;;;6.72;4.90;;;6.00;61.00;;;;;;5034356;28;20040;-80
2022/02/14 09:17:58;;;;;;;8.68;6.45;;;6.40;60.00;;;;;;5035624;28;20055;-81
2022/02/14 09:20:23;;;;;;;11.70;6.68;;;7.10;59.60;;;;;;5037509;28;20532;-81
2022/02/14 09:22:54;;;;;;;11.38;6.40;;;8.10;57.20;;;;;;5034803;28;20025;-83
2022/02/14 09:25:23;;;;;;;8.00;5.53;;;9.10;54.90;;;;;;5016168;28;20140;-85
2022/02/14 09:27:50;;;;;;;8.07;6.15;;;9.90;52.80;;;;;;5033569;28;20442;-84
2022/02/14 09:30:16;;;;;;;9.23;6.05;;;9.60;51.50;;;;;;5033645;28;20032;-82
2022/02/14 09:32:42;;;;;;;9.02;5.60;;;9.30;51.70;;;;;;5033787;28;20100;-83
2022/02/14 09:35:08;;;;;;;14.98;6.90;;;8.60;51.60;;;;;;5012072;28;20438;-84
2022/02/14 09:37:34;;;;;;;11.43;8.30;;;8.10;53.20;;;;;;5033214;28;20064;-83
2022/02/14 09:40:00;;;;;;;17.75;8.68;;;7.50;53.60;;;;;;5016652;28;20502;-86
2022/02/14 09:42:26;;;;;;;12.30;7.95;;;7.00;54.70;;;;;;5034330;28;20072;-86
2022/02/14 09:44:53;;;;;;;12.55;6.68;;;6.70;56.10;;;;;;5034016;28;20433;-86
2022/02/14 09:47:25;;;;;;;10.07;7.57;;;6.80;56.50;;;;;;5032953;28;20382;-83
2022/02/14 09:49:55;;;;;;;9.98;6.43;;;6.80;56.00;;;;;;5033425;28;20040;-84
2022/02/14 09:52:22;;;;;;;12.38;8.20;;;6.50;56.10;;;;;;5033924;28;20025;-86
2022/02/14 09:54:48;;;;;;;12.80;8.32;;;6.10;57.30;;;;;;5033237;28;20060;-85
2022/02/14 09:57:14;;;;;;;14.18;8.57;;;6.00;57.80;;;;;;5026960;28;20055;-85
2022/02/14 09:59:41;;;;;;;14.57;7.65;;;6.10;58.20;;;;;;5036336;28;20044;-84
2022/02/14 10:02:20;;;;;;;9.43;6.55;;;5.90;58.10;;;;;;5042032;28;20024;-84
2022/02/14 10:05:10;;;;;;;12.48;7.90;;;5.40;58.80;;;;;;5037243;28;20037;-84
2022/02/14 10:07:46;;;;;;;11.48;7.60;;;5.90;60.40;;;;;;5034042;28;20057;-83
2022/02/14 10:10:16;;;;;;;11.60;7.00;;;6.80;58.30;;;;;;5015718;28;20025;-85
2022/02/14 10:12:47;;;;;;;11.27;6.55;;;7.70;56.70;;;;;;5033748;28;20024;-85
2022/02/14 10:15:16;;;;;;;10.07;6.60;;;8.50;55.10;;;;;;5033450;28;20386;-82
2022/02/14 10:17:45;;;;;;;10.68;6.82;;;9.00;53.40;;;;;;5017429;28;20063;-83
2022/02/14 10:20:15;;;;;;;9.82;6.70;;;9.30;52.50;;;;;;5012597;28;20030;-84
2022/02/14 10:23:04;;;;;;;10.20;7.38;;;10.10;51.70;;;;;;5029908;28;20090;-82
2022/02/14 10:25:31;;;;;;;9.43;7.47;;;10.90;50.10;;;;;;5032669;28;20375;-89
2022/02/14 10:28:19;;;;;;;10.20;7.25;;;11.40;49.00;;;;;;5038626;28;20021;-83
2022/02/14 10:31:06;;;;;;;8.68;7.32;;;12.40;47.90;;;;;;5014068;28;20124;-86
2022/02/14 10:33:54;;;;;;;9.40;7.68;;;13.20;45.10;;;;;;5033275;28;20044;-87
2022/02/14 10:36:44;;;;;;;11.85;7.43;;;13.20;44.80;;;;;;5016594;28;20075;-84
2022/02/14 10:39:20;;;;;;;9.23;7.05;;;12.80;45.00;;;;;;5030742;28;20437;-85
2022/02/14 10:41:55;;;;;;;11.05;7.57;;;11.50;44.50;;;;;;5022310;28;20029;-84
2022/02/14 10:47:20;;;;;;;11.30;7.67;;;8.50;49.10;;;;;;5033574;28;20068;-84
2022/02/14 10:50:09;;;;;;;;;;;;;;;;;;;;;
2022/02/14 10:52:36;;;;;;;11.73;8.80;;;6.40;54.10;;;;;;5028135;28;20039;-86
2022/02/14 10:55:05;;;;;;;12.60;8.43;;;5.70;55.80;;;;;;5028990;28;20453;-86
2022/02/14 10:57:33;;;;;;;12.60;9.70;;;5.20;57.20;;;;;;5031807;28;20041;-84
2022/02/14 11:00:00;;;;;;;13.05;8.95;;;4.90;58.70;;;;;;5013318;28;20080;-86
2022/02/14 11:02:27;;;;;;;13.32;8.02;;;4.60;59.40;;;;;;5008741;28;20057;-86
2022/02/14 11:04:54;;;;;;;12.30;9.18;;;4.40;60.00;;;;;;5031556;28;20065;-87
2022/02/14 11:07:21;;;;;;;13.40;9.02;;;4.30;61.00;;;;;;5032564;28;20025;-86
2022/02/14 11:09:51;;;;;;;13.97;8.17;;;4.10;61.70;;;;;;5032483;28;20060;-86
2022/02/14 11:12:19;;;;;;;12.48;9.68;;;3.90;62.70;;;;;;4995297;28;20452;-86
2022/02/14 11:15:03;;;;;;;11.98;8.07;;;3.70;63.30;;;;;;5003698;28;20029;-87
2022/02/14 11:17:31;;;;;;;11.73;8.63;;;3.70;63.80;;;;;;5034550;28;20037;-87
2022/02/14 11:20:00;;;;;;;14.55;8.38;;;3.60;64.00;;;;;;5002620;28;20053;-83
2022/02/14 11:22:30;;;;;;;17.00;9.38;;;3.60;64.60;;;;;;5019897;28;20030;-87
2022/02/14 11:25:43;;;;;;;14.40;9.90;;;3.50;64.80;;;;;;5009369;28;20124;-87
2022/02/14 11:28:37;;;;;;;18.50;8.85;;;3.50;65.30;;;;;;5011966;28;20109;-86
2022/02/14 11:31:14;;;;;;;11.85;7.85;;;3.50;65.80;;;;;;5023051;28;20026;-87
2022/02/14 11:33:50;;;;;;;13.48;9.07;;;3.40;66.10;;;;;;5007696;28;20072;-87
2022/02/14 11:36:16;;;;;;;18.42;9.05;;;3.30;66.40;;;;;;5038906;28;20029;-87
2022/02/14 11:38:52;;;;;;;16.90;9.63;;;3.30;67.00;;;;;;5004687;28;20041;-84
2022/02/14 11:41:40;;;;;;;15.27;9.55;;;3.20;67.50;;;;;;5012674;28;20418;-84
2022/02/14 11:44:25;;;;;;;13.10;8.20;;;3.30;67.70;;;;;;4997289;28;20438;-81
2022/02/14 11:46:53;;;;;;;11.73;8.88;;;3.30;67.50;;;;;;5030417;28;20554;-84
2022/02/14 11:49:39;;;;;;;12.68;8.32;;;3.20;68.00;;;;;;5030251;28;20513;-83
2022/02/14 11:52:28;;;;;;;15.50;9.90;;;3.20;68.30;;;;;;5035741;28;20665;-84
2022/02/14 11:54:55;;;;;;;14.45;9.13;;;3.20;68.60;;;;;;5035612;28;20021;-84
2022/02/14 11:57:45;;;;;;;19.50;9.88;;;3.30;68.70;;;;;;5035893;28;20108;-85
2022/02/14 12:00:14;;;;;;;11.55;7.97;;;3.30;69.40;;;;;;5033035;28;20085;-84
2022/02/14 12:02:42;;;;;;;15.38;8.50;;;3.30;69.40;;;;;;5035414;28;20040;-85
2022/02/14 12:05:09;;;;;;;12.73;9.15;;;3.30;68.70;;;;;;5036902;28;20056;-87
2022/02/14 12:07:36;;;;;;;12.02;8.77;;;3.20;69.20;;;;;;5036259;28;20537;-82
2022/02/14 12:10:14;;;;;;;12.02;8.20;;;3.20;69.10;;;;;;5017783;28;20030;-87
2022/02/14 12:12:46;;;;;;;14.93;9.00;;;3.00;69.40;;;;;;5015410;28;20604;-87
2022/02/14 12:21:19;;;;;;;13.95;9.77;;;3.00;70.00;;;;;;5017588;28;20033;-83
2022/02/14 12:23:51;;;;;;;18.48;11.23;;;3.00;70.20;;;;;;5035388;28;20036;-85
2022/02/14 12:26:28;;;;;;;10.63;7.88;;;3.00;70.30;;;;;;5033551;28;20040;-86
2022/02/14 12:31:52;;;;;;;15.05;9.55;;;2.90;70.40;;;;;;5034388;28;20512;-84
2022/02/14 12:34:31;;;;;;;15.07;11.05;;;2.90;70.50;;;;;;5034582;28;20044;-85
2022/02/14 12:37:00;;;;;;;15.40;9.35;;;2.90;70.70;;;;;;5016705;28;20207;-85
2022/02/14 12:39:33;;;;;;;15.07;9.15;;;2.90;70.70;;;;;;5035135;28;20021;-84
2022/02/14 12:42:08;;;;;;;12.10;8.60;;;2.80;70.80;;;;;;5037759;28;20501;-85
2022/02/14 12:44:34;;;;;;;20.83;11.30;;;2.80;71.20;;;;;;5036165;28;20032;-85
2022/02/14 12:47:00;;;;;;;19.40;8.95;;;2.80;71.40;;;;;;5035631;28;20038;-86
2022/02/14 12:49:26;;;;;;;19.67;11.65;;;2.80;71.60;;;;;;5017137;28;20032;-85
2022/02/14 12:51:52;;;;;;;13.48;8.40;;;2.80;71.70;;;;;;5033992;28;20056;-82
2022/02/14 12:54:18;;;;;;;13.50;9.05;;;2.80;71.50;;;;;;5034961;28;20057;-84
2022/02/14 12:56:44;;;;;;;12.55;9.98;;;2.80;71.60;;;;;;5035817;28;20529;-83
2022/02/14 12:59:12;;;;;;;18.80;9.65;;;2.70;71.80;;;;;;5036884;28;20079;-85
2022/02/14 13:01:44;;;;;;;;;;;2.80;71.90;;;;;;5033558;28;20029;-83
2022/02/14 13:04:12;;;;;;;11.73;8.73;;;2.70;71.50;;;;;;5019811;28;20401;-84
2022/02/14 13:06:40;;;;;;;18.92;9.45;;;2.70;71.90;;;;;;5036407;28;20025;-83